Butts AAF (Fort Carson) Air Field
KFCS : rendu visible

Aérodrome :











RETROUVEZ-NOUS SUR...

 
LOGIN :

S'inscrire | Disclaimer

   EN    FR    IT 

 









Légende :    VFR   VFR Marginal   IFR   IFR Intensif   IFR Très Intensif
Visi : 
Plafond : 
>= 8 km
>= 3000ft
5 à 8 km
1000 à 3000 ft
1500m à 5 km
500 à 1000 ft
800 à 1500m
200 à 500 ft
< 800m
< 200 ft
Symboles :   Orages  Brouillard  Fortes neiges  Fortes précipitations  Vent > 20 kt






- Altitude de l'aérodrome : 5838 ft


KFCS - Butts AAF (Fort Carson) Air Field

DERNIER METAR :
  • 191458Z AUTO 33005KT 10SM CLR 05/M02 A2987 RMK AO2 SLP120 T00531021 53001 $

METARs EXPIRÉS :
  • 191358Z AUTO 34008KT 10SM CLR 00/M04 A2985 RMK AO2 SLP124 T00011044 $
  • 191258Z AUTO 33008KT 10SM CLR 00/M04 A2986 RMK AO2 SLP127 T10031042 $

TAF TAF KFCS
Valide du 19 à 13h jusqu'au 20 à 19h UTC


191301Z 1913/2019 31009KT 9999 SKC QNH2985INS
BECMG 1917/1918 VRB06KT 9999 FEW200 QNH2977INS
BECMG 2005/2006 31009KT 9999 FEW150 SCT200 QNH2966INS
BECMG 2014/2015 34009KT 9999 VCSH BKN100 QNH2964INS TX18/1921Z TN00/1913Z



MET'MAP, la Météo Aéronautique d'un coup d'oeil ! - Copyright ORBIFLY Décembre 2007 - Disclaimer

ORBIFLY MET'MAP TEAM :

Programmation & Développement : Alexandra Zaïnal
Conception & Développement : Baudouin d'Aumeries
Co-Programmation & Développement : Marc-Olivier Méhu
Soutien technique & logistique : Manuel Goepfert

Contact : metmap@orbifly.com




SOURCES & CREDITS :

   NOAA       Earth
Advisory